createdAt,value
2023-05-19T00:01:25.626Z,18.02
2023-05-19T00:04:13.788Z,15.68
2023-05-19T00:07:00.589Z,19.85
2023-05-19T00:09:46.180Z,16.75
2023-05-19T00:12:32.251Z,13.98
2023-05-19T00:15:17.843Z,13.70
2023-05-19T00:18:03.199Z,14.48
2023-05-19T00:20:49.024Z,21.23
2023-05-19T00:23:37.081Z,14.85
2023-05-19T00:26:23.292Z,24.08
2023-05-19T00:29:21.085Z,16.58
2023-05-19T00:32:07.018Z,16.38
2023-05-19T00:34:52.870Z,22.88
2023-05-19T00:37:41.654Z,17.23
2023-05-19T00:40:29.082Z,20.73
2023-05-19T00:43:14.533Z,16.63
2023-05-19T00:46:00.232Z,19.67
2023-05-19T00:48:46.306Z,15.32
2023-05-19T00:51:32.468Z,15.10
2023-05-19T00:54:18.417Z,19.75
2023-05-19T00:57:04.335Z,20.15
2023-05-19T00:59:59.257Z,17.98
2023-05-19T01:02:45.181Z,20.25
2023-05-19T01:05:31.245Z,24.02
2023-05-19T01:08:17.134Z,23.00
2023-05-19T01:11:04.281Z,21.20
2023-05-19T01:13:49.977Z,18.88
2023-05-19T01:16:40.507Z,20.70
2023-05-19T01:19:50.807Z,18.77
2023-05-19T01:23:05.253Z,18.45
2023-05-19T01:26:04.318Z,18.83
2023-05-19T01:28:56.053Z,16.45
2023-05-19T01:31:42.888Z,20.58
2023-05-19T01:34:30.961Z,16.02
2023-05-19T01:37:17.715Z,18.02
2023-05-19T01:40:07.342Z,19.35
2023-05-19T01:42:58.480Z,19.45
2023-05-19T01:45:45.178Z,20.42
2023-05-19T01:48:31.187Z,19.63
2023-05-19T01:51:19.665Z,20.02
2023-05-19T01:54:05.091Z,14.70
2023-05-19T01:57:13.758Z,16.60
2023-05-19T02:00:17.459Z,18.17
2023-05-19T02:03:09.877Z,18.70
2023-05-19T02:06:09.114Z,12.25
2023-05-19T02:09:16.989Z,17.13
2023-05-19T02:12:23.140Z,17.63
2023-05-19T02:15:16.588Z,19.52
2023-05-19T02:18:04.711Z,20.33
2023-05-19T02:21:00.479Z,18.55
2023-05-19T02:23:46.753Z,20.92
2023-05-19T02:26:32.353Z,21.95
2023-05-19T02:29:17.909Z,25.88
2023-05-19T02:32:03.584Z,18.40
2023-05-19T02:34:49.846Z,21.77
2023-05-19T02:37:36.265Z,16.85
2023-05-19T02:40:22.327Z,19.73
2023-05-19T02:43:08.732Z,18.13
2023-05-19T02:45:53.986Z,22.05
2023-05-19T02:48:39.539Z,20.85
2023-05-19T02:51:25.152Z,16.45
2023-05-19T02:54:13.227Z,23.33
2023-05-19T02:56:59.033Z,17.60
2023-05-19T02:59:44.572Z,14.70
2023-05-19T03:02:30.919Z,29.77
2023-05-19T03:05:16.495Z,21.63
2023-05-19T03:08:01.870Z,27.45
2023-05-19T03:10:48.070Z,21.63
2023-05-19T03:13:33.898Z,26.98
2023-05-19T03:16:19.690Z,24.05
2023-05-19T03:19:04.993Z,21.50
2023-05-19T03:21:50.845Z,24.80
2023-05-19T03:24:36.360Z,22.52
2023-05-19T03:27:22.012Z,18.98
2023-05-19T03:30:09.047Z,24.08
2023-05-19T03:33:05.353Z,22.05
2023-05-19T03:35:53.029Z,29.85
2023-05-19T03:38:38.844Z,30.08
2023-05-19T03:41:24.443Z,17.13
2023-05-19T03:44:10.634Z,26.20
2023-05-19T03:46:56.013Z,28.35
2023-05-19T03:50:02.299Z,28.27
2023-05-19T03:53:10.604Z,26.50
2023-05-19T03:56:00.621Z,27.10
2023-05-19T03:58:47.249Z,26.13
2023-05-19T04:01:33.955Z,22.08
2023-05-19T04:04:19.280Z,26.00
2023-05-19T04:07:04.941Z,26.45
2023-05-19T04:09:56.565Z,27.15
2023-05-19T04:12:41.739Z,25.77
2023-05-19T04:15:27.506Z,25.35
2023-05-19T04:18:14.063Z,33.63
2023-05-19T04:20:59.660Z,29.67
2023-05-19T04:23:44.806Z,25.80
2023-05-19T04:26:33.662Z,29.10
2023-05-19T04:29:23.727Z,31.92
2023-05-19T04:32:10.845Z,32.08
2023-05-19T04:34:58.893Z,29.35
2023-05-19T04:37:46.142Z,36.90
2023-05-19T04:40:33.654Z,21.75
2023-05-19T04:43:19.465Z,30.90
2023-05-19T04:46:06.396Z,33.22
2023-05-19T04:48:53.321Z,35.45
2023-05-19T04:51:41.422Z,23.05
2023-05-19T04:54:27.732Z,29.52
2023-05-19T04:57:14.422Z,23.35
2023-05-19T05:00:05.228Z,27.83
2023-05-19T05:02:57.651Z,23.27
2023-05-19T05:05:44.703Z,26.65
2023-05-19T05:08:30.455Z,21.85
2023-05-19T05:11:16.176Z,25.98
2023-05-19T05:14:01.976Z,19.30
2023-05-19T05:16:49.667Z,19.73
2023-05-19T05:19:40.898Z,24.83
2023-05-19T05:22:26.448Z,22.40
2023-05-19T05:25:13.323Z,22.00
2023-05-19T05:28:00.012Z,20.65
2023-05-19T05:30:46.629Z,22.40
2023-05-19T05:33:33.513Z,23.40
2023-05-19T05:36:21.806Z,18.33
2023-05-19T05:39:10.556Z,19.35
2023-05-19T05:41:58.435Z,22.08
2023-05-19T05:44:44.183Z,24.60
2023-05-19T05:47:29.576Z,20.33
2023-05-19T05:50:15.526Z,26.08
2023-05-19T05:53:06.834Z,23.23
2023-05-19T05:55:55.147Z,20.13
2023-05-19T05:58:45.398Z,24.80
2023-05-19T06:01:31.143Z,26.00
2023-05-19T06:04:17.524Z,20.90
2023-05-19T06:07:02.951Z,23.58
2023-05-19T06:09:52.775Z,18.27
2023-05-19T06:12:43.265Z,24.95
2023-05-19T06:15:29.975Z,18.50
2023-05-19T06:18:23.649Z,27.83
2023-05-19T06:21:14.026Z,18.60
2023-05-19T06:24:00.753Z,20.50
2023-05-19T06:26:46.398Z,22.33
2023-05-19T06:29:32.021Z,25.08
2023-05-19T06:32:21.353Z,24.02
2023-05-19T06:35:07.448Z,18.90
2023-05-19T06:37:53.526Z,20.00
2023-05-19T06:40:43.200Z,21.63
2023-05-19T06:43:29.120Z,25.65
2023-05-19T06:46:17.931Z,24.80
2023-05-19T06:49:03.902Z,19.98
2023-05-19T06:51:53.607Z,17.98
2023-05-19T06:54:39.723Z,17.17
2023-05-19T06:57:25.786Z,16.67
2023-05-19T07:00:13.432Z,21.10
2023-05-19T07:03:02.381Z,15.60
2023-05-19T07:05:50.159Z,17.02
2023-05-19T07:08:37.428Z,16.42
2023-05-19T07:11:26.420Z,13.73
2023-05-19T07:14:11.975Z,15.35
2023-05-19T07:16:57.331Z,19.05
2023-05-19T07:19:43.283Z,16.42
2023-05-19T07:22:28.844Z,15.40
2023-05-19T07:25:14.191Z,19.65
2023-05-19T07:27:59.803Z,15.43
2023-05-19T07:30:45.369Z,14.15
2023-05-19T07:33:31.120Z,17.95
2023-05-19T07:36:19.519Z,11.55
2023-05-19T07:39:05.251Z,17.85
2023-05-19T07:41:54.347Z,16.92
2023-05-19T07:44:39.624Z,16.73
2023-05-19T07:47:26.281Z,17.60
2023-05-19T07:50:12.073Z,15.95
2023-05-19T07:52:57.507Z,16.40
2023-05-19T07:55:43.139Z,9.13
2023-05-19T07:58:28.647Z,14.88
2023-05-19T08:01:14.333Z,13.75
2023-05-19T08:04:00.297Z,10.07
2023-05-19T08:06:46.037Z,20.02
2023-05-19T08:09:31.795Z,11.95
2023-05-19T08:12:17.321Z,13.77
2023-05-19T08:15:02.575Z,13.95
2023-05-19T08:17:48.254Z,14.48
2023-05-19T08:20:34.300Z,13.18
2023-05-19T08:23:20.483Z,13.50
2023-05-19T08:26:06.166Z,12.90
2023-05-19T08:28:52.025Z,15.40
2023-05-19T08:31:37.599Z,16.13
2023-05-19T08:34:23.009Z,13.52
2023-05-19T08:37:08.677Z,11.65
2023-05-19T08:39:54.376Z,13.02
2023-05-19T08:42:39.741Z,15.02
2023-05-19T08:45:25.451Z,9.70
2023-05-19T08:48:11.861Z,9.70
2023-05-19T08:51:09.205Z,12.07
2023-05-19T08:54:03.590Z,7.75
2023-05-19T08:56:49.415Z,15.00
2023-05-19T08:59:35.323Z,10.80
2023-05-19T09:02:22.607Z,12.43
2023-05-19T09:05:09.133Z,12.85
2023-05-19T09:07:55.235Z,10.05
2023-05-19T09:10:41.299Z,12.27
2023-05-19T09:13:26.979Z,12.05
2023-05-19T09:16:13.229Z,10.25
2023-05-19T09:18:59.095Z,11.63
2023-05-19T09:21:45.760Z,17.02
2023-05-19T09:24:32.120Z,13.40
2023-05-19T09:27:25.225Z,11.02
2023-05-19T09:30:10.622Z,12.02
2023-05-19T09:32:56.321Z,9.15
2023-05-19T09:35:47.204Z,13.95
2023-05-19T09:38:32.711Z,9.00
2023-05-19T09:41:18.117Z,15.13
2023-05-19T09:44:03.656Z,10.80
2023-05-19T09:46:50.707Z,13.43
2023-05-19T09:49:36.460Z,10.20
2023-05-19T09:52:22.216Z,9.65
2023-05-19T09:55:11.051Z,10.60
2023-05-19T09:57:56.925Z,10.63
2023-05-19T10:00:43.011Z,6.15
2023-05-19T10:03:28.876Z,10.38
2023-05-19T10:06:17.573Z,11.15
2023-05-19T10:09:04.051Z,11.07
2023-05-19T10:11:51.465Z,6.93
2023-05-19T10:14:37.783Z,10.23
2023-05-19T10:17:26.198Z,8.20
2023-05-19T10:20:14.153Z,11.70
2023-05-19T10:22:59.575Z,10.73
2023-05-19T10:25:49.041Z,8.27
2023-05-19T10:28:41.302Z,11.18
2023-05-19T10:31:27.582Z,7.93
2023-05-19T10:34:50.249Z,6.45
2023-05-19T10:37:55.482Z,11.00
2023-05-19T10:41:06.831Z,10.27
2023-05-19T10:44:04.373Z,7.85
2023-05-19T10:46:49.990Z,12.05
2023-05-19T10:49:36.685Z,6.78
2023-05-19T10:52:26.121Z,7.75
2023-05-19T10:55:17.460Z,11.88
2023-05-19T10:58:03.119Z,10.05
2023-05-19T11:01:01.124Z,13.43
2023-05-19T11:03:54.948Z,9.23
2023-05-19T11:06:52.153Z,12.10
2023-05-19T11:09:41.235Z,7.78
2023-05-19T11:12:27.140Z,8.43
2023-05-19T11:15:14.635Z,8.48
2023-05-19T11:18:03.379Z,8.50
2023-05-19T11:21:00.833Z,10.68
2023-05-19T11:23:46.342Z,7.82
2023-05-19T11:26:48.249Z,14.45
2023-05-19T11:29:34.860Z,9.27
2023-05-19T11:32:21.890Z,8.25
2023-05-19T11:35:08.075Z,8.07
2023-05-19T11:37:54.854Z,7.57
2023-05-19T11:40:42.649Z,8.50
2023-05-19T11:43:27.932Z,8.85
2023-05-19T11:46:13.934Z,8.38
2023-05-19T11:48:59.589Z,9.50
2023-05-19T11:51:47.911Z,5.93
2023-05-19T11:54:39.151Z,7.85
2023-05-19T11:57:27.469Z,10.13
2023-05-19T12:00:14.621Z,12.88
2023-05-19T12:03:00.237Z,7.43
2023-05-19T12:05:48.198Z,8.10
2023-05-19T12:08:35.478Z,6.93
2023-05-19T12:11:20.881Z,12.88
2023-05-19T12:14:13.048Z,8.30
2023-05-19T12:16:58.234Z,7.05
2023-05-19T12:19:45.046Z,13.57
2023-05-19T12:22:30.637Z,8.68
2023-05-19T12:25:17.100Z,9.43
2023-05-19T12:28:05.797Z,5.45
2023-05-19T12:30:52.618Z,7.80
2023-05-19T12:33:38.154Z,8.75
2023-05-19T12:36:25.278Z,13.73
2023-05-19T12:39:11.632Z,9.98
2023-05-19T12:42:04.529Z,13.75
2023-05-19T12:44:52.749Z,10.07
2023-05-19T12:47:39.096Z,17.45
2023-05-19T12:50:31.488Z,9.35
2023-05-19T12:53:17.278Z,10.40
2023-05-19T12:56:18.406Z,8.70
2023-05-19T12:59:04.272Z,7.35
2023-05-19T13:01:57.333Z,7.35
2023-05-19T13:04:42.861Z,9.23
2023-05-19T13:07:28.448Z,7.60
2023-05-19T13:10:16.997Z,11.48
2023-05-19T13:13:03.472Z,7.40
2023-05-19T13:15:51.969Z,8.00
2023-05-19T13:18:38.316Z,10.30
2023-05-19T13:21:23.540Z,9.82
2023-05-19T13:24:09.365Z,6.22
2023-05-19T13:26:55.993Z,9.45
2023-05-19T13:29:44.504Z,9.80
2023-05-19T13:32:29.929Z,7.95
2023-05-19T13:35:15.446Z,9.45
2023-05-19T13:38:01.052Z,8.25
2023-05-19T13:40:46.713Z,9.32
2023-05-19T13:43:32.223Z,7.22
2023-05-19T13:46:19.247Z,9.55
2023-05-19T13:49:07.157Z,9.10
2023-05-19T13:51:56.801Z,9.23
2023-05-19T13:54:42.103Z,8.20
2023-05-19T13:57:27.499Z,12.18
2023-05-19T14:00:13.874Z,8.93
2023-05-19T14:03:00.288Z,8.55
2023-05-19T14:05:48.530Z,7.32
2023-05-19T14:08:34.313Z,7.85
2023-05-19T14:11:23.680Z,11.80
2023-05-19T14:14:11.332Z,8.20
2023-05-19T14:16:57.253Z,6.57
2023-05-19T14:19:42.862Z,8.18
2023-05-19T14:22:28.345Z,12.50
2023-05-19T14:25:13.807Z,9.70
2023-05-19T14:27:59.932Z,8.25
2023-05-19T14:30:48.368Z,11.95
2023-05-19T14:33:35.706Z,11.98
2023-05-19T14:36:21.467Z,9.13
2023-05-19T14:39:07.229Z,7.72
2023-05-19T14:41:53.151Z,7.38
2023-05-19T14:44:38.523Z,6.03
2023-05-19T14:47:27.391Z,9.48
2023-05-19T14:50:18.809Z,7.22
2023-05-19T14:53:04.709Z,12.45
2023-05-19T14:55:50.302Z,7.80
2023-05-19T14:58:35.864Z,7.80
2023-05-19T15:01:21.446Z,7.32
2023-05-19T15:04:08.039Z,8.77
2023-05-19T15:07:05.823Z,11.10
2023-05-19T15:09:55.572Z,9.88
2023-05-19T15:12:41.184Z,5.32
2023-05-19T15:15:26.449Z,9.18
2023-05-19T15:18:18.469Z,7.88
2023-05-19T15:21:04.517Z,8.02
2023-05-19T15:23:49.995Z,7.85
2023-05-19T15:26:35.008Z,8.70
2023-05-19T15:29:20.417Z,10.40
2023-05-19T15:32:06.352Z,10.70
2023-05-19T15:34:51.994Z,9.18
2023-05-19T15:37:37.432Z,9.00
2023-05-19T15:40:25.949Z,11.52
2023-05-19T15:43:11.331Z,9.30
2023-05-19T15:45:56.773Z,14.52
2023-05-19T15:48:42.424Z,6.78
2023-05-19T15:51:28.084Z,11.07
2023-05-19T15:54:13.554Z,8.60
2023-05-19T15:56:59.168Z,7.45
2023-05-19T15:59:44.504Z,10.48
2023-05-19T16:02:30.195Z,7.20
2023-05-19T16:05:16.740Z,7.25
2023-05-19T16:08:02.176Z,12.68
2023-05-19T16:10:47.802Z,12.48
2023-05-19T16:13:33.867Z,10.10
2023-05-19T16:16:19.807Z,4.90
2023-05-19T16:19:07.716Z,8.43
2023-05-19T16:21:53.761Z,7.30
2023-05-19T16:24:39.070Z,10.05
2023-05-19T16:27:25.018Z,7.03
2023-05-19T16:30:10.564Z,10.98
2023-05-19T16:32:56.029Z,7.75
2023-05-19T16:35:41.355Z,7.85
2023-05-19T16:38:26.962Z,10.73
2023-05-19T16:41:12.584Z,9.35
2023-05-19T16:43:58.087Z,8.35
2023-05-19T16:46:43.366Z,9.77
2023-05-19T16:49:33.497Z,7.75
2023-05-19T16:52:18.906Z,6.07
2023-05-19T16:55:04.436Z,6.00
2023-05-19T16:57:49.548Z,7.72
2023-05-19T17:00:35.292Z,8.30
2023-05-19T17:03:21.316Z,10.23
2023-05-19T17:06:06.945Z,6.97
2023-05-19T17:08:52.370Z,6.07
2023-05-19T17:11:38.004Z,5.75
2023-05-19T17:14:23.503Z,10.73
2023-05-19T17:17:08.815Z,8.23
2023-05-19T17:19:54.178Z,7.40
2023-05-19T17:22:42.587Z,6.28
2023-05-19T17:25:28.404Z,6.25
2023-05-19T17:28:13.665Z,6.65
2023-05-19T17:30:59.193Z,9.93
2023-05-19T17:33:44.434Z,10.32
2023-05-19T17:36:29.818Z,7.88
2023-05-19T17:39:16.201Z,9.13
2023-05-19T17:42:02.622Z,6.93
2023-05-19T17:44:50.880Z,10.80
2023-05-19T17:47:36.464Z,4.85
2023-05-19T17:50:21.654Z,6.47
2023-05-19T17:53:07.465Z,10.15
2023-05-19T17:55:57.733Z,13.63
2023-05-19T17:58:44.171Z,7.78
2023-05-19T18:01:31.573Z,10.13
2023-05-19T18:04:24.429Z,10.80
2023-05-19T18:07:11.809Z,10.27
2023-05-19T18:10:00.431Z,7.70
2023-05-19T18:12:45.920Z,8.05
2023-05-19T18:15:31.562Z,10.82
2023-05-19T18:18:16.974Z,8.05
2023-05-19T18:21:02.414Z,8.32
2023-05-19T18:23:48.146Z,8.10
2023-05-19T18:26:33.869Z,10.20
2023-05-19T18:29:22.375Z,6.95
2023-05-19T18:32:08.279Z,7.70
2023-05-19T18:34:54.340Z,12.25
2023-05-19T18:37:39.572Z,13.10
2023-05-19T18:40:25.240Z,12.93
2023-05-19T18:43:14.450Z,12.57
2023-05-19T18:46:02.893Z,11.02
2023-05-19T18:48:51.287Z,12.68
2023-05-19T18:51:36.837Z,12.88
2023-05-19T18:54:22.401Z,10.35
2023-05-19T18:57:08.159Z,13.50
2023-05-19T18:59:53.740Z,12.10
2023-05-19T19:02:41.055Z,11.38
2023-05-19T19:05:26.552Z,14.90
2023-05-19T19:08:12.184Z,12.90
2023-05-19T19:11:01.028Z,38.20
2023-05-19T19:13:47.416Z,20.95
2023-05-19T19:16:33.273Z,14.00
2023-05-19T19:19:18.964Z,16.73
2023-05-19T19:22:07.320Z,12.65
2023-05-19T19:24:52.792Z,13.52
2023-05-19T19:27:38.732Z,13.52
2023-05-19T19:30:25.203Z,16.95
2023-05-19T19:33:11.254Z,19.02
2023-05-19T19:35:56.581Z,18.63
2023-05-19T19:38:42.135Z,20.50
2023-05-19T19:41:29.825Z,27.17
2023-05-19T19:44:16.550Z,17.85
2023-05-19T19:47:06.029Z,16.42
2023-05-19T19:49:51.827Z,20.75
2023-05-19T19:52:37.770Z,13.15
2023-05-19T19:55:23.105Z,17.25
2023-05-19T19:58:08.799Z,19.90
2023-05-19T20:01:02.948Z,19.08
2023-05-19T20:03:49.030Z,12.55
2023-05-19T20:06:34.617Z,16.50
2023-05-19T20:09:20.204Z,10.30
2023-05-19T20:12:05.897Z,23.33
2023-05-19T20:14:53.870Z,18.35
2023-05-19T20:17:39.696Z,11.93
2023-05-19T20:20:25.024Z,17.80
2023-05-19T20:23:10.336Z,19.38
2023-05-19T20:26:10.948Z,14.38
2023-05-19T20:28:59.027Z,20.90
2023-05-19T20:31:47.018Z,24.50
2023-05-19T20:34:32.678Z,15.77
2023-05-19T20:37:17.853Z,19.42
2023-05-19T20:40:03.723Z,25.75
2023-05-19T20:42:49.328Z,22.70
2023-05-19T20:45:35.019Z,18.23
2023-05-19T20:48:21.013Z,15.68
2023-05-19T20:51:06.908Z,16.70
2023-05-19T20:53:53.970Z,15.73
2023-05-19T20:56:39.715Z,13.98
2023-05-19T20:59:24.907Z,17.00
2023-05-19T21:02:11.823Z,19.95
2023-05-19T21:04:57.064Z,20.40
2023-05-19T21:07:42.636Z,23.83
2023-05-19T21:10:27.914Z,16.05
2023-05-19T21:13:13.704Z,19.73
2023-05-19T21:15:59.497Z,17.90
2023-05-19T21:18:45.164Z,16.58
2023-05-19T21:21:31.777Z,14.18
2023-05-19T21:24:17.624Z,17.98
2023-05-19T21:27:03.255Z,19.95
2023-05-19T21:29:53.247Z,16.83
2023-05-19T21:32:38.773Z,22.75
2023-05-19T21:35:26.880Z,24.50
2023-05-19T21:38:23.309Z,16.30
2023-05-19T21:41:09.393Z,17.80
2023-05-19T21:43:54.698Z,13.25
2023-05-19T21:46:40.431Z,12.93
2023-05-19T21:49:25.699Z,18.42
2023-05-19T21:52:11.137Z,18.92
2023-05-19T21:54:57.006Z,12.40
2023-05-19T21:57:42.923Z,15.05
2023-05-19T22:00:28.849Z,19.58
2023-05-19T22:03:14.280Z,14.40
2023-05-19T22:05:59.783Z,13.15
2023-05-19T22:08:45.233Z,17.02
2023-05-19T22:11:30.767Z,15.10
2023-05-19T22:14:16.375Z,12.20
2023-05-19T22:17:01.607Z,19.23
2023-05-19T22:19:48.622Z,15.30
2023-05-19T22:22:34.595Z,12.50
2023-05-19T22:25:23.473Z,13.25
2023-05-19T22:28:09.320Z,13.05
2023-05-19T22:30:54.842Z,17.45
2023-05-19T22:33:40.293Z,17.85
2023-05-19T22:36:25.874Z,12.48
2023-05-19T22:39:17.315Z,18.80
2023-05-19T22:42:02.683Z,14.18
2023-05-19T22:44:48.140Z,11.70
2023-05-19T22:47:33.587Z,15.00
2023-05-19T22:50:20.161Z,19.30
2023-05-19T22:53:05.853Z,12.45
2023-05-19T22:55:51.366Z,15.15
2023-05-19T22:58:36.908Z,12.63
2023-05-19T23:01:25.380Z,11.50
2023-05-19T23:04:11.851Z,9.43
2023-05-19T23:06:57.603Z,13.43
2023-05-19T23:09:43.503Z,12.70
2023-05-19T23:12:29.524Z,15.57
2023-05-19T23:15:17.078Z,16.95
2023-05-19T23:18:06.988Z,12.48
2023-05-19T23:20:52.316Z,14.55
2023-05-19T23:23:37.861Z,19.45
2023-05-19T23:26:23.547Z,15.50
2023-05-19T23:29:14.932Z,12.55
2023-05-19T23:32:00.254Z,11.98
2023-05-19T23:34:48.156Z,13.25
2023-05-19T23:37:33.481Z,20.98
2023-05-19T23:40:19.347Z,13.65
2023-05-19T23:43:05.084Z,13.95
2023-05-19T23:45:50.649Z,13.65
2023-05-19T23:48:36.689Z,12.85
2023-05-19T23:51:22.437Z,14.23
2023-05-19T23:54:07.947Z,10.00
2023-05-19T23:56:58.769Z,16.02
2023-05-19T23:59:44.492Z,11.27
